sensor_id;sensor_type;location;lat;lon;timestamp;P1;durP1;ratioP1;P2;durP2;ratioP2
68993;SDS011;56054;50.968;5.816;2023-01-28T05:46:19;19.23;;;10.67;;
68993;SDS011;56054;50.968;5.816;2023-01-28T05:50:11;17.80;;;10.07;;
68993;SDS011;56054;50.968;5.816;2023-01-28T05:53:41;15.17;;;7.90;;
68993;SDS011;56054;50.968;5.816;2023-01-28T05:56:57;14.13;;;8.23;;
68993;SDS011;56054;50.968;5.816;2023-01-28T06:00:07;15.93;;;9.50;;
68993;SDS011;56054;50.968;5.816;2023-01-28T06:03:22;16.93;;;8.43;;
68993;SDS011;56054;50.968;5.816;2023-01-28T06:07:14;11.90;;;7.73;;
68993;SDS011;56054;50.968;5.816;2023-01-28T06:10:30;17.17;;;9.53;;
68993;SDS011;56054;50.968;5.816;2023-01-28T06:14:01;16.03;;;9.17;;
68993;SDS011;56054;50.968;5.816;2023-01-28T06:17:47;14.37;;;8.87;;
68993;SDS011;56054;50.968;5.816;2023-01-28T06:21:06;17.77;;;9.47;;
68993;SDS011;56054;50.968;5.816;2023-01-28T06:24:35;16.83;;;9.37;;
68993;SDS011;56054;50.968;5.816;2023-01-28T06:27:52;18.70;;;10.93;;
68993;SDS011;56054;50.968;5.816;2023-01-28T06:31:03;16.30;;;9.77;;
68993;SDS011;56054;50.968;5.816;2023-01-28T06:34:29;14.73;;;8.07;;
68993;SDS011;56054;50.968;5.816;2023-01-28T06:37:44;16.30;;;8.30;;
68993;SDS011;56054;50.968;5.816;2023-01-28T06:40:57;15.07;;;8.90;;
68993;SDS011;56054;50.968;5.816;2023-01-28T06:44:12;14.13;;;9.13;;
68993;SDS011;56054;50.968;5.816;2023-01-28T06:47:50;17.30;;;9.67;;
68993;SDS011;56054;50.968;5.816;2023-01-28T06:51:02;17.53;;;9.33;;
68993;SDS011;56054;50.968;5.816;2023-01-28T06:54:30;15.73;;;8.37;;
68993;SDS011;56054;50.968;5.816;2023-01-28T06:57:47;14.77;;;9.13;;
68993;SDS011;56054;50.968;5.816;2023-01-28T07:01:01;24.30;;;9.87;;
68993;SDS011;56054;50.968;5.816;2023-01-28T07:04:18;14.77;;;8.47;;
68993;SDS011;56054;50.968;5.816;2023-01-28T07:07:41;20.80;;;9.50;;
68993;SDS011;56054;50.968;5.816;2023-01-28T07:10:56;14.03;;;8.50;;
68993;SDS011;56054;50.968;5.816;2023-01-28T07:14:05;16.83;;;8.97;;
68993;SDS011;56054;50.968;5.816;2023-01-28T07:17:16;15.13;;;8.93;;
68993;SDS011;56054;50.968;5.816;2023-01-28T07:20:25;21.10;;;10.33;;
68993;SDS011;56054;50.968;5.816;2023-01-28T07:23:38;24.70;;;9.67;;
68993;SDS011;56054;50.968;5.816;2023-01-28T07:26:46;16.03;;;8.77;;
68993;SDS011;56054;50.968;5.816;2023-01-28T07:29:54;15.00;;;8.57;;
68993;SDS011;56054;50.968;5.816;2023-01-28T07:33:08;16.93;;;9.60;;
68993;SDS011;56054;50.968;5.816;2023-01-28T07:40:09;16.53;;;9.20;;
68993;SDS011;56054;50.968;5.816;2023-01-28T07:47:09;17.20;;;9.40;;
68993;SDS011;56054;50.968;5.816;2023-01-28T07:50:33;19.20;;;10.37;;
68993;SDS011;56054;50.968;5.816;2023-01-28T07:53:46;15.70;;;8.77;;
68993;SDS011;56054;50.968;5.816;2023-01-28T07:56:58;18.60;;;10.20;;
68993;SDS011;56054;50.968;5.816;2023-01-28T08:00:05;16.20;;;8.23;;
68993;SDS011;56054;50.968;5.816;2023-01-28T08:03:16;15.97;;;9.20;;
68993;SDS011;56054;50.968;5.816;2023-01-28T08:06:34;18.50;;;10.93;;
68993;SDS011;56054;50.968;5.816;2023-01-28T08:09:43;14.50;;;8.13;;
68993;SDS011;56054;50.968;5.816;2023-01-28T08:12:56;17.53;;;9.63;;
68993;SDS011;56054;50.968;5.816;2023-01-28T08:16:08;20.30;;;11.00;;
68993;SDS011;56054;50.968;5.816;2023-01-28T08:19:16;24.17;;;10.83;;
68993;SDS011;56054;50.968;5.816;2023-01-28T08:22:31;18.20;;;10.27;;
68993;SDS011;56054;50.968;5.816;2023-01-28T08:25:51;17.40;;;9.93;;
68993;SDS011;56054;50.968;5.816;2023-01-28T08:29:10;19.20;;;9.97;;
68993;SDS011;56054;50.968;5.816;2023-01-28T08:32:21;18.13;;;9.60;;
68993;SDS011;56054;50.968;5.816;2023-01-28T08:35:33;19.43;;;10.33;;
68993;SDS011;56054;50.968;5.816;2023-01-28T08:38:51;18.57;;;10.77;;
68993;SDS011;56054;50.968;5.816;2023-01-28T08:42:04;18.70;;;10.23;;
68993;SDS011;56054;50.968;5.816;2023-01-28T08:45:16;17.93;;;9.50;;
68993;SDS011;56054;50.968;5.816;2023-01-28T08:48:40;17.73;;;9.53;;
68993;SDS011;56054;50.968;5.816;2023-01-28T08:53:03;18.63;;;10.33;;
68993;SDS011;56054;50.968;5.816;2023-01-28T08:56:48;20.03;;;10.60;;
68993;SDS011;56054;50.968;5.816;2023-01-28T09:00:12;17.10;;;10.30;;
68993;SDS011;56054;50.968;5.816;2023-01-28T09:03:38;19.07;;;10.40;;
68993;SDS011;56054;50.968;5.816;2023-01-28T09:07:20;20.07;;;10.53;;
68993;SDS011;56054;50.968;5.816;2023-01-28T09:10:33;24.67;;;10.27;;
68993;SDS011;56054;50.968;5.816;2023-01-28T09:13:44;21.03;;;9.47;;
68993;SDS011;56054;50.968;5.816;2023-01-28T09:29:15;19.23;;;9.27;;
68993;SDS011;56054;50.968;5.816;2023-01-28T09:32:34;19.03;;;9.87;;
68993;SDS011;56054;50.968;5.816;2023-01-28T09:35:58;18.30;;;9.97;;
68993;SDS011;56054;50.968;5.816;2023-01-28T09:39:23;18.97;;;10.97;;
68993;SDS011;56054;50.968;5.816;2023-01-28T09:46:02;18.43;;;10.20;;
68993;SDS011;56054;50.968;5.816;2023-01-28T09:49:16;16.83;;;8.77;;
68993;SDS011;56054;50.968;5.816;2023-01-28T10:00:31;20.80;;;11.37;;
68993;SDS011;56054;50.968;5.816;2023-01-28T10:07:49;19.30;;;10.10;;
68993;SDS011;56054;50.968;5.816;2023-01-28T10:18:28;20.17;;;10.93;;
68993;SDS011;56054;50.968;5.816;2023-01-28T10:21:40;28.97;;;16.03;;
68993;SDS011;56054;50.968;5.816;2023-01-28T10:25:05;19.43;;;10.57;;
68993;SDS011;56054;50.968;5.816;2023-01-28T10:36:49;23.20;;;10.00;;
68993;SDS011;56054;50.968;5.816;2023-01-28T10:43:39;22.37;;;10.67;;
68993;SDS011;56054;50.968;5.816;2023-01-28T10:46:55;21.50;;;11.13;;
68993;SDS011;56054;50.968;5.816;2023-01-28T10:50:14;21.20;;;10.73;;
68993;SDS011;56054;50.968;5.816;2023-01-28T10:53:44;18.23;;;10.07;;
68993;SDS011;56054;50.968;5.816;2023-01-28T10:57:01;21.47;;;10.83;;
68993;SDS011;56054;50.968;5.816;2023-01-28T11:00:34;16.70;;;9.77;;
68993;SDS011;56054;50.968;5.816;2023-01-28T11:07:32;18.20;;;10.00;;
68993;SDS011;56054;50.968;5.816;2023-01-28T11:15:04;29.37;;;13.07;;
68993;SDS011;56054;50.968;5.816;2023-01-28T11:18:29;19.80;;;9.67;;
68993;SDS011;56054;50.968;5.816;2023-01-28T11:30:20;17.00;;;9.10;;
68993;SDS011;56054;50.968;5.816;2023-01-28T11:38:10;18.83;;;9.57;;
68993;SDS011;56054;50.968;5.816;2023-01-28T11:41:36;16.17;;;8.37;;
68993;SDS011;56054;50.968;5.816;2023-01-28T12:16:56;17.93;;;10.30;;
68993;SDS011;56054;50.968;5.816;2023-01-28T12:27:44;15.23;;;9.37;;
68993;SDS011;56054;50.968;5.816;2023-01-28T12:41:50;18.23;;;9.43;;
68993;SDS011;56054;50.968;5.816;2023-01-28T12:45:12;17.00;;;10.00;;
68993;SDS011;56054;50.968;5.816;2023-01-28T12:48:32;16.20;;;9.73;;
68993;SDS011;56054;50.968;5.816;2023-01-28T12:51:56;18.57;;;10.17;;
68993;SDS011;56054;50.968;5.816;2023-01-28T12:58:30;16.17;;;9.43;;
68993;SDS011;56054;50.968;5.816;2023-01-28T13:05:11;17.97;;;10.13;;
68993;SDS011;56054;50.968;5.816;2023-01-28T13:08:24;19.70;;;11.63;;
68993;SDS011;56054;50.968;5.816;2023-01-28T13:11:39;16.33;;;9.67;;
68993;SDS011;56054;50.968;5.816;2023-01-28T13:15:02;16.43;;;9.53;;
68993;SDS011;56054;50.968;5.816;2023-01-28T13:21:45;18.90;;;10.20;;
68993;SDS011;56054;50.968;5.816;2023-01-28T13:24:57;20.33;;;11.43;;
68993;SDS011;56054;50.968;5.816;2023-01-28T13:32:26;17.40;;;9.90;;
68993;SDS011;56054;50.968;5.816;2023-01-28T13:35:37;23.50;;;11.43;;
68993;SDS011;56054;50.968;5.816;2023-01-28T13:38:48;20.73;;;10.90;;
68993;SDS011;56054;50.968;5.816;2023-01-28T13:54:35;18.47;;;10.40;;
68993;SDS011;56054;50.968;5.816;2023-01-28T14:01:43;18.53;;;10.70;;
68993;SDS011;56054;50.968;5.816;2023-01-28T14:15:52;16.03;;;8.97;;
68993;SDS011;56054;50.968;5.816;2023-01-28T14:19:10;16.93;;;9.47;;
68993;SDS011;56054;50.968;5.816;2023-01-28T14:22:21;19.87;;;10.03;;
68993;SDS011;56054;50.968;5.816;2023-01-28T14:25:48;17.23;;;9.93;;
68993;SDS011;56054;50.968;5.816;2023-01-28T14:32:33;15.00;;;9.50;;
68993;SDS011;56054;50.968;5.816;2023-01-28T14:35:50;17.53;;;9.60;;
68993;SDS011;56054;50.968;5.816;2023-01-28T14:39:03;17.73;;;9.30;;
68993;SDS011;56054;50.968;5.816;2023-01-28T14:42:28;17.60;;;9.47;;
68993;SDS011;56054;50.968;5.816;2023-01-28T14:45:52;17.93;;;9.77;;
68993;SDS011;56054;50.968;5.816;2023-01-28T14:53:18;18.20;;;10.50;;
68993;SDS011;56054;50.968;5.816;2023-01-28T15:08:02;16.40;;;9.10;;
68993;SDS011;56054;50.968;5.816;2023-01-28T15:11:13;20.80;;;10.83;;
68993;SDS011;56054;50.968;5.816;2023-01-28T15:14:29;17.50;;;10.37;;
68993;SDS011;56054;50.968;5.816;2023-01-28T15:17:43;18.27;;;10.13;;
68993;SDS011;56054;50.968;5.816;2023-01-28T15:21:00;18.60;;;10.00;;
68993;SDS011;56054;50.968;5.816;2023-01-28T15:24:11;31.50;;;16.73;;
68993;SDS011;56054;50.968;5.816;2023-01-28T15:27:23;23.77;;;12.37;;
68993;SDS011;56054;50.968;5.816;2023-01-28T16:08:41;21.67;;;11.03;;
68993;SDS011;56054;50.968;5.816;2023-01-28T17:20:36;24.70;;;12.37;;
68993;SDS011;56054;50.968;5.816;2023-01-28T17:23:43;26.97;;;13.27;;
68993;SDS011;56054;50.968;5.816;2023-01-28T17:27:06;22.40;;;10.97;;
68993;SDS011;56054;50.968;5.816;2023-01-28T17:30:15;23.03;;;13.40;;
68993;SDS011;56054;50.968;5.816;2023-01-28T17:37:31;19.43;;;11.60;;
68993;SDS011;56054;50.968;5.816;2023-01-28T17:44:29;18.77;;;10.60;;
68993;SDS011;56054;50.968;5.816;2023-01-28T17:47:46;20.97;;;10.77;;
68993;SDS011;56054;50.968;5.816;2023-01-28T17:51:38;20.37;;;10.60;;
68993;SDS011;56054;50.968;5.816;2023-01-28T17:54:51;20.60;;;10.10;;
68993;SDS011;56054;50.968;5.816;2023-01-28T17:58:06;20.97;;;11.33;;
68993;SDS011;56054;50.968;5.816;2023-01-28T18:01:24;19.97;;;10.50;;
68993;SDS011;56054;50.968;5.816;2023-01-28T18:04:35;20.33;;;11.27;;
68993;SDS011;56054;50.968;5.816;2023-01-28T18:07:50;21.23;;;11.57;;
68993;SDS011;56054;50.968;5.816;2023-01-28T18:11:10;23.47;;;12.20;;
68993;SDS011;56054;50.968;5.816;2023-01-28T18:14:23;24.07;;;11.90;;
68993;SDS011;56054;50.968;5.816;2023-01-28T18:17:35;25.73;;;12.13;;
68993;SDS011;56054;50.968;5.816;2023-01-28T18:21:03;28.33;;;13.40;;
68993;SDS011;56054;50.968;5.816;2023-01-28T18:24:12;24.50;;;11.80;;
68993;SDS011;56054;50.968;5.816;2023-01-28T18:27:27;26.97;;;13.73;;
68993;SDS011;56054;50.968;5.816;2023-01-28T18:30:35;28.23;;;13.60;;
68993;SDS011;56054;50.968;5.816;2023-01-28T18:33:43;28.03;;;15.17;;
68993;SDS011;56054;50.968;5.816;2023-01-28T18:36:50;38.33;;;18.17;;
68993;SDS011;56054;50.968;5.816;2023-01-28T18:39:58;33.17;;;15.73;;
68993;SDS011;56054;50.968;5.816;2023-01-28T18:43:05;28.20;;;15.17;;
68993;SDS011;56054;50.968;5.816;2023-01-28T18:46:15;31.13;;;15.50;;
68993;SDS011;56054;50.968;5.816;2023-01-28T18:49:27;30.10;;;15.53;;
68993;SDS011;56054;50.968;5.816;2023-01-28T18:52:35;30.73;;;14.97;;
68993;SDS011;56054;50.968;5.816;2023-01-28T18:55:48;28.87;;;16.10;;
68993;SDS011;56054;50.968;5.816;2023-01-28T18:59:02;29.37;;;15.40;;
68993;SDS011;56054;50.968;5.816;2023-01-28T19:02:11;31.43;;;15.77;;
68993;SDS011;56054;50.968;5.816;2023-01-28T19:05:19;35.43;;;16.43;;
68993;SDS011;56054;50.968;5.816;2023-01-28T19:08:26;36.90;;;17.73;;
68993;SDS011;56054;50.968;5.816;2023-01-28T19:11:34;33.57;;;16.40;;
68993;SDS011;56054;50.968;5.816;2023-01-28T19:14:42;34.57;;;16.13;;
68993;SDS011;56054;50.968;5.816;2023-01-28T19:17:50;36.93;;;16.83;;
68993;SDS011;56054;50.968;5.816;2023-01-28T19:21:01;31.73;;;16.33;;
68993;SDS011;56054;50.968;5.816;2023-01-28T19:24:10;34.40;;;16.83;;
68993;SDS011;56054;50.968;5.816;2023-01-28T19:27:25;34.63;;;15.93;;
68993;SDS011;56054;50.968;5.816;2023-01-28T19:30:34;33.00;;;16.63;;
68993;SDS011;56054;50.968;5.816;2023-01-28T19:33:41;31.97;;;15.93;;
68993;SDS011;56054;50.968;5.816;2023-01-28T19:36:49;30.37;;;15.57;;
68993;SDS011;56054;50.968;5.816;2023-01-28T19:39:56;34.67;;;16.67;;
68993;SDS011;56054;50.968;5.816;2023-01-28T19:43:28;30.20;;;14.80;;
68993;SDS011;56054;50.968;5.816;2023-01-28T19:46:36;29.90;;;15.60;;
68993;SDS011;56054;50.968;5.816;2023-01-28T19:49:43;31.73;;;15.80;;
68993;SDS011;56054;50.968;5.816;2023-01-28T19:52:49;29.30;;;15.20;;
68993;SDS011;56054;50.968;5.816;2023-01-28T19:55:58;30.17;;;14.83;;
68993;SDS011;56054;50.968;5.816;2023-01-28T19:59:08;28.87;;;15.20;;
68993;SDS011;56054;50.968;5.816;2023-01-28T20:02:15;29.87;;;15.60;;
68993;SDS011;56054;50.968;5.816;2023-01-28T20:05:31;25.17;;;14.03;;
68993;SDS011;56054;50.968;5.816;2023-01-28T20:08:38;27.70;;;14.70;;
68993;SDS011;56054;50.968;5.816;2023-01-28T20:11:59;30.30;;;14.80;;
68993;SDS011;56054;50.968;5.816;2023-01-28T20:15:06;30.87;;;15.33;;
68993;SDS011;56054;50.968;5.816;2023-01-28T20:18:22;34.23;;;16.17;;
68993;SDS011;56054;50.968;5.816;2023-01-28T20:21:33;31.33;;;15.17;;
68993;SDS011;56054;50.968;5.816;2023-01-28T20:24:48;28.73;;;14.70;;
68993;SDS011;56054;50.968;5.816;2023-01-28T20:27:59;31.40;;;15.47;;
68993;SDS011;56054;50.968;5.816;2023-01-28T20:31:07;26.83;;;15.20;;
68993;SDS011;56054;50.968;5.816;2023-01-28T20:34:16;29.80;;;13.37;;
68993;SDS011;56054;50.968;5.816;2023-01-28T20:37:25;25.13;;;14.40;;
68993;SDS011;56054;50.968;5.816;2023-01-28T20:40:32;30.60;;;16.13;;
68993;SDS011;56054;50.968;5.816;2023-01-28T20:43:41;30.63;;;14.80;;
68993;SDS011;56054;50.968;5.816;2023-01-28T20:46:50;33.53;;;15.30;;
68993;SDS011;56054;50.968;5.816;2023-01-28T20:49:57;27.80;;;15.83;;
68993;SDS011;56054;50.968;5.816;2023-01-28T20:53:05;28.33;;;15.40;;
68993;SDS011;56054;50.968;5.816;2023-01-28T20:56:12;31.70;;;16.07;;
68993;SDS011;56054;50.968;5.816;2023-01-28T20:59:21;33.10;;;14.33;;
68993;SDS011;56054;50.968;5.816;2023-01-28T21:02:28;25.83;;;14.47;;
68993;SDS011;56054;50.968;5.816;2023-01-28T21:05:39;27.63;;;14.40;;
68993;SDS011;56054;50.968;5.816;2023-01-28T21:08:46;27.00;;;15.10;;
68993;SDS011;56054;50.968;5.816;2023-01-28T21:11:59;28.50;;;14.20;;
68993;SDS011;56054;50.968;5.816;2023-01-28T21:15:06;29.00;;;14.70;;
68993;SDS011;56054;50.968;5.816;2023-01-28T21:18:14;27.63;;;15.03;;
68993;SDS011;56054;50.968;5.816;2023-01-28T21:21:27;31.13;;;15.53;;
68993;SDS011;56054;50.968;5.816;2023-01-28T21:24:39;32.00;;;15.97;;
68993;SDS011;56054;50.968;5.816;2023-01-28T21:27:49;30.07;;;15.07;;
68993;SDS011;56054;50.968;5.816;2023-01-28T21:31:04;31.33;;;15.53;;
68993;SDS011;56054;50.968;5.816;2023-01-28T21:34:13;30.83;;;14.90;;
68993;SDS011;56054;50.968;5.816;2023-01-28T21:37:20;34.00;;;16.20;;
68993;SDS011;56054;50.968;5.816;2023-01-28T21:40:28;39.73;;;17.43;;
68993;SDS011;56054;50.968;5.816;2023-01-28T21:43:38;31.10;;;15.63;;
68993;SDS011;56054;50.968;5.816;2023-01-28T21:46:45;30.03;;;15.17;;
68993;SDS011;56054;50.968;5.816;2023-01-28T21:49:52;30.37;;;15.83;;
68993;SDS011;56054;50.968;5.816;2023-01-28T21:52:59;26.90;;;14.63;;
68993;SDS011;56054;50.968;5.816;2023-01-28T21:56:07;31.63;;;15.13;;
68993;SDS011;56054;50.968;5.816;2023-01-28T21:59:15;30.30;;;15.80;;
68993;SDS011;56054;50.968;5.816;2023-01-28T22:02:38;28.53;;;15.37;;
68993;SDS011;56054;50.968;5.816;2023-01-28T22:05:55;32.30;;;15.63;;
68993;SDS011;56054;50.968;5.816;2023-01-28T22:09:05;30.47;;;15.70;;
68993;SDS011;56054;50.968;5.816;2023-01-28T22:12:12;31.23;;;16.83;;
68993;SDS011;56054;50.968;5.816;2023-01-28T22:15:20;34.60;;;15.97;;
68993;SDS011;56054;50.968;5.816;2023-01-28T22:18:27;29.13;;;15.10;;
68993;SDS011;56054;50.968;5.816;2023-01-28T22:21:38;32.20;;;16.50;;
68993;SDS011;56054;50.968;5.816;2023-01-28T22:24:48;30.67;;;16.47;;
68993;SDS011;56054;50.968;5.816;2023-01-28T22:27:54;34.00;;;17.40;;
68993;SDS011;56054;50.968;5.816;2023-01-28T22:31:10;30.47;;;15.30;;
68993;SDS011;56054;50.968;5.816;2023-01-28T22:34:21;36.13;;;16.27;;
68993;SDS011;56054;50.968;5.816;2023-01-28T22:37:29;34.87;;;16.30;;
68993;SDS011;56054;50.968;5.816;2023-01-28T22:40:38;30.43;;;14.53;;
68993;SDS011;56054;50.968;5.816;2023-01-28T22:43:46;29.13;;;15.60;;
68993;SDS011;56054;50.968;5.816;2023-01-28T22:46:54;30.17;;;15.07;;
68993;SDS011;56054;50.968;5.816;2023-01-28T22:50:12;31.37;;;16.13;;
68993;SDS011;56054;50.968;5.816;2023-01-28T22:53:38;31.37;;;16.43;;
68993;SDS011;56054;50.968;5.816;2023-01-28T22:56:51;30.47;;;16.00;;
68993;SDS011;56054;50.968;5.816;2023-01-28T23:28:53;31.50;;;16.93;;
